sensor_id;sensor_type;location;lat;lon;timestamp;temperature;humidity
59505;DHT22;45321;53.200;5.814;2023-07-29T00:01:44;20.50;80.20
59505;DHT22;45321;53.200;5.814;2023-07-29T00:04:09;20.50;80.40
59505;DHT22;45321;53.200;5.814;2023-07-29T00:06:35;20.50;80.50
59505;DHT22;45321;53.200;5.814;2023-07-29T00:09:02;20.50;80.50
59505;DHT22;45321;53.200;5.814;2023-07-29T00:11:28;20.50;80.40
59505;DHT22;45321;53.200;5.814;2023-07-29T00:13:54;20.50;80.70
59505;DHT22;45321;53.200;5.814;2023-07-29T00:16:20;20.40;80.70
59505;DHT22;45321;53.200;5.814;2023-07-29T00:18:49;20.40;80.80
59505;DHT22;45321;53.200;5.814;2023-07-29T00:21:14;20.40;80.70
59505;DHT22;45321;53.200;5.814;2023-07-29T00:23:40;20.40;80.80
59505;DHT22;45321;53.200;5.814;2023-07-29T00:26:06;20.30;81.10
59505;DHT22;45321;53.200;5.814;2023-07-29T00:28:32;20.30;81.00
59505;DHT22;45321;53.200;5.814;2023-07-29T00:30:58;20.30;81.10
59505;DHT22;45321;53.200;5.814;2023-07-29T00:33:24;20.30;81.10
59505;DHT22;45321;53.200;5.814;2023-07-29T00:35:50;20.30;81.30
59505;DHT22;45321;53.200;5.814;2023-07-29T00:38:16;20.20;81.20
59505;DHT22;45321;53.200;5.814;2023-07-29T00:40:42;20.30;81.30
59505;DHT22;45321;53.200;5.814;2023-07-29T00:43:08;20.20;81.30
59505;DHT22;45321;53.200;5.814;2023-07-29T00:45:34;20.20;81.40
59505;DHT22;45321;53.200;5.814;2023-07-29T00:48:01;20.20;81.40
59505;DHT22;45321;53.200;5.814;2023-07-29T00:50:29;20.20;81.60
59505;DHT22;45321;53.200;5.814;2023-07-29T00:52:55;20.20;81.60
59505;DHT22;45321;53.200;5.814;2023-07-29T00:55:21;20.20;81.70
59505;DHT22;45321;53.200;5.814;2023-07-29T00:57:47;20.20;81.90
59505;DHT22;45321;53.200;5.814;2023-07-29T01:00:15;20.10;81.80
59505;DHT22;45321;53.200;5.814;2023-07-29T01:02:42;20.10;81.90
59505;DHT22;45321;53.200;5.814;2023-07-29T01:05:08;20.10;81.90
59505;DHT22;45321;53.200;5.814;2023-07-29T01:08:00;20.10;81.80
59505;DHT22;45321;53.200;5.814;2023-07-29T01:10:40;20.10;82.10
59505;DHT22;45321;53.200;5.814;2023-07-29T01:13:42;20.10;81.80
59505;DHT22;45321;53.200;5.814;2023-07-29T01:19:05;20.10;81.80
59505;DHT22;45321;53.200;5.814;2023-07-29T01:21:33;20.10;82.10
59505;DHT22;45321;53.200;5.814;2023-07-29T01:24:00;20.10;82.20
59505;DHT22;45321;53.200;5.814;2023-07-29T01:26:26;20.10;82.30
59505;DHT22;45321;53.200;5.814;2023-07-29T01:28:56;20.00;82.20
59505;DHT22;45321;53.200;5.814;2023-07-29T01:31:32;20.00;82.30
59505;DHT22;45321;53.200;5.814;2023-07-29T01:34:10;20.00;82.50
59505;DHT22;45321;53.200;5.814;2023-07-29T01:36:37;20.00;82.50
59505;DHT22;45321;53.200;5.814;2023-07-29T01:39:06;20.00;82.40
59505;DHT22;45321;53.200;5.814;2023-07-29T01:41:34;20.00;82.50
59505;DHT22;45321;53.200;5.814;2023-07-29T01:44:01;20.00;82.70
59505;DHT22;45321;53.200;5.814;2023-07-29T01:46:27;20.00;82.50
59505;DHT22;45321;53.200;5.814;2023-07-29T01:48:53;20.00;82.80
59505;DHT22;45321;53.200;5.814;2023-07-29T01:51:18;19.90;82.60
59505;DHT22;45321;53.200;5.814;2023-07-29T01:53:44;19.90;82.70
59505;DHT22;45321;53.200;5.814;2023-07-29T01:56:10;19.90;82.70
59505;DHT22;45321;53.200;5.814;2023-07-29T01:58:36;19.90;83.00
59505;DHT22;45321;53.200;5.814;2023-07-29T02:01:01;19.90;82.90
59505;DHT22;45321;53.200;5.814;2023-07-29T02:03:27;19.80;82.90
59505;DHT22;45321;53.200;5.814;2023-07-29T02:05:53;19.80;83.10
59505;DHT22;45321;53.200;5.814;2023-07-29T02:08:19;19.80;83.00
59505;DHT22;45321;53.200;5.814;2023-07-29T02:10:45;19.80;82.90
59505;DHT22;45321;53.200;5.814;2023-07-29T02:13:11;19.80;83.40
59505;DHT22;45321;53.200;5.814;2023-07-29T02:15:37;19.80;83.00
59505;DHT22;45321;53.200;5.814;2023-07-29T02:18:03;19.70;83.20
59505;DHT22;45321;53.200;5.814;2023-07-29T02:20:29;19.80;83.10
59505;DHT22;45321;53.200;5.814;2023-07-29T02:22:55;19.70;83.00
59505;DHT22;45321;53.200;5.814;2023-07-29T02:25:20;19.70;83.10
59505;DHT22;45321;53.200;5.814;2023-07-29T02:27:46;19.70;83.00
59505;DHT22;45321;53.200;5.814;2023-07-29T02:30:12;19.70;83.10
59505;DHT22;45321;53.200;5.814;2023-07-29T02:32:38;19.70;83.10
59505;DHT22;45321;53.200;5.814;2023-07-29T02:35:04;19.70;83.10
59505;DHT22;45321;53.200;5.814;2023-07-29T02:37:30;19.70;83.40
59505;DHT22;45321;53.200;5.814;2023-07-29T02:39:56;19.70;83.40
59505;DHT22;45321;53.200;5.814;2023-07-29T02:42:22;19.70;83.30
59505;DHT22;45321;53.200;5.814;2023-07-29T02:44:47;19.70;83.20
59505;DHT22;45321;53.200;5.814;2023-07-29T02:47:13;19.70;83.20
59505;DHT22;45321;53.200;5.814;2023-07-29T02:49:39;19.70;83.30
59505;DHT22;45321;53.200;5.814;2023-07-29T02:52:05;19.70;83.40
59505;DHT22;45321;53.200;5.814;2023-07-29T02:54:30;19.70;83.20
59505;DHT22;45321;53.200;5.814;2023-07-29T02:56:56;19.70;83.00
59505;DHT22;45321;53.200;5.814;2023-07-29T02:59:22;19.60;82.90
59505;DHT22;45321;53.200;5.814;2023-07-29T03:01:48;19.60;83.00
59505;DHT22;45321;53.200;5.814;2023-07-29T03:04:13;19.50;83.10
59505;DHT22;45321;53.200;5.814;2023-07-29T03:06:39;19.50;83.10
59505;DHT22;45321;53.200;5.814;2023-07-29T03:09:05;19.50;82.80
59505;DHT22;45321;53.200;5.814;2023-07-29T03:11:31;19.50;82.90
59505;DHT22;45321;53.200;5.814;2023-07-29T03:13:57;19.40;83.10
59505;DHT22;45321;53.200;5.814;2023-07-29T03:16:22;19.40;83.00
59505;DHT22;45321;53.200;5.814;2023-07-29T03:18:49;19.40;82.90
59505;DHT22;45321;53.200;5.814;2023-07-29T03:21:15;19.40;82.70
59505;DHT22;45321;53.200;5.814;2023-07-29T03:23:41;19.30;82.70
59505;DHT22;45321;53.200;5.814;2023-07-29T03:26:07;19.30;82.80
59505;DHT22;45321;53.200;5.814;2023-07-29T03:28:40;19.30;82.70
59505;DHT22;45321;53.200;5.814;2023-07-29T03:31:06;19.30;82.90
59505;DHT22;45321;53.200;5.814;2023-07-29T03:33:32;19.30;82.80
59505;DHT22;45321;53.200;5.814;2023-07-29T03:35:57;19.20;83.00
59505;DHT22;45321;53.200;5.814;2023-07-29T03:38:23;19.20;82.80
59505;DHT22;45321;53.200;5.814;2023-07-29T03:40:50;19.20;82.70
59505;DHT22;45321;53.200;5.814;2023-07-29T03:43:16;19.20;82.80
59505;DHT22;45321;53.200;5.814;2023-07-29T03:45:42;19.20;83.00
59505;DHT22;45321;53.200;5.814;2023-07-29T03:48:07;19.20;82.90
59505;DHT22;45321;53.200;5.814;2023-07-29T03:50:34;19.10;82.80
59505;DHT22;45321;53.200;5.814;2023-07-29T03:53:01;19.20;82.70
59505;DHT22;45321;53.200;5.814;2023-07-29T03:55:27;19.20;82.60
59505;DHT22;45321;53.200;5.814;2023-07-29T03:57:56;19.20;82.90
59505;DHT22;45321;53.200;5.814;2023-07-29T04:00:21;19.20;82.70
59505;DHT22;45321;53.200;5.814;2023-07-29T04:02:47;19.20;82.70
59505;DHT22;45321;53.200;5.814;2023-07-29T04:05:13;19.10;82.70
59505;DHT22;45321;53.200;5.814;2023-07-29T04:07:39;19.10;82.70
59505;DHT22;45321;53.200;5.814;2023-07-29T04:10:05;19.10;82.90
59505;DHT22;45321;53.200;5.814;2023-07-29T04:12:31;19.10;82.90
59505;DHT22;45321;53.200;5.814;2023-07-29T04:14:57;19.00;82.70
59505;DHT22;45321;53.200;5.814;2023-07-29T04:17:23;19.00;82.80
59505;DHT22;45321;53.200;5.814;2023-07-29T04:19:48;19.00;82.80
59505;DHT22;45321;53.200;5.814;2023-07-29T04:22:16;19.00;82.80
59505;DHT22;45321;53.200;5.814;2023-07-29T04:24:42;19.00;82.90
59505;DHT22;45321;53.200;5.814;2023-07-29T04:27:08;19.00;83.00
59505;DHT22;45321;53.200;5.814;2023-07-29T04:29:33;19.00;82.90
59505;DHT22;45321;53.200;5.814;2023-07-29T04:32:04;19.00;82.80
59505;DHT22;45321;53.200;5.814;2023-07-29T04:34:30;19.00;82.80
59505;DHT22;45321;53.200;5.814;2023-07-29T04:36:56;19.00;82.80
59505;DHT22;45321;53.200;5.814;2023-07-29T04:39:21;19.00;82.80
59505;DHT22;45321;53.200;5.814;2023-07-29T04:41:47;19.00;82.90
59505;DHT22;45321;53.200;5.814;2023-07-29T04:44:13;19.00;82.80
59505;DHT22;45321;53.200;5.814;2023-07-29T04:46:39;19.00;82.80
59505;DHT22;45321;53.200;5.814;2023-07-29T04:49:04;19.00;82.80
59505;DHT22;45321;53.200;5.814;2023-07-29T04:51:30;19.00;83.00
59505;DHT22;45321;53.200;5.814;2023-07-29T04:53:58;19.00;82.70
59505;DHT22;45321;53.200;5.814;2023-07-29T04:56:23;19.00;82.80
59505;DHT22;45321;53.200;5.814;2023-07-29T04:58:49;19.00;83.00
59505;DHT22;45321;53.200;5.814;2023-07-29T05:01:15;19.00;82.80
59505;DHT22;45321;53.200;5.814;2023-07-29T05:03:41;19.00;82.90
59505;DHT22;45321;53.200;5.814;2023-07-29T05:06:07;19.00;82.90
59505;DHT22;45321;53.200;5.814;2023-07-29T05:08:33;19.00;82.90
59505;DHT22;45321;53.200;5.814;2023-07-29T05:10:59;19.00;83.00
59505;DHT22;45321;53.200;5.814;2023-07-29T05:13:24;19.10;83.10
59505;DHT22;45321;53.200;5.814;2023-07-29T05:15:50;19.00;82.90
59505;DHT22;45321;53.200;5.814;2023-07-29T05:18:17;19.00;83.00
59505;DHT22;45321;53.200;5.814;2023-07-29T05:20:42;19.00;83.10
59505;DHT22;45321;53.200;5.814;2023-07-29T05:23:09;19.00;83.10
59505;DHT22;45321;53.200;5.814;2023-07-29T05:25:35;19.00;83.20
59505;DHT22;45321;53.200;5.814;2023-07-29T05:28:03;19.10;83.20
59505;DHT22;45321;53.200;5.814;2023-07-29T05:30:30;19.10;83.20
59505;DHT22;45321;53.200;5.814;2023-07-29T05:33:03;19.10;83.30
59505;DHT22;45321;53.200;5.814;2023-07-29T05:35:30;19.10;83.30
59505;DHT22;45321;53.200;5.814;2023-07-29T05:37:55;19.00;83.50
59505;DHT22;45321;53.200;5.814;2023-07-29T05:40:21;19.10;83.50
59505;DHT22;45321;53.200;5.814;2023-07-29T05:42:47;19.00;83.60
59505;DHT22;45321;53.200;5.814;2023-07-29T05:45:13;19.00;83.70
59505;DHT22;45321;53.200;5.814;2023-07-29T05:47:39;19.10;83.60
59505;DHT22;45321;53.200;5.814;2023-07-29T05:50:05;19.00;83.80
59505;DHT22;45321;53.200;5.814;2023-07-29T05:52:31;19.10;83.90
59505;DHT22;45321;53.200;5.814;2023-07-29T05:54:57;19.10;84.10
59505;DHT22;45321;53.200;5.814;2023-07-29T05:57:23;19.10;84.10
59505;DHT22;45321;53.200;5.814;2023-07-29T05:59:49;19.10;84.00
59505;DHT22;45321;53.200;5.814;2023-07-29T06:02:15;19.20;84.00
59505;DHT22;45321;53.200;5.814;2023-07-29T06:04:41;19.20;84.10
59505;DHT22;45321;53.200;5.814;2023-07-29T06:07:06;19.20;84.20
59505;DHT22;45321;53.200;5.814;2023-07-29T06:09:32;19.20;84.10
59505;DHT22;45321;53.200;5.814;2023-07-29T06:11:58;19.20;84.10
59505;DHT22;45321;53.200;5.814;2023-07-29T06:14:24;19.20;84.30
59505;DHT22;45321;53.200;5.814;2023-07-29T06:16:49;19.20;84.20
59505;DHT22;45321;53.200;5.814;2023-07-29T06:19:15;19.20;84.50
59505;DHT22;45321;53.200;5.814;2023-07-29T06:21:41;19.30;84.50
59505;DHT22;45321;53.200;5.814;2023-07-29T06:24:07;19.30;84.40
59505;DHT22;45321;53.200;5.814;2023-07-29T06:26:33;19.40;84.40
59505;DHT22;45321;53.200;5.814;2023-07-29T06:28:59;19.50;84.40
59505;DHT22;45321;53.200;5.814;2023-07-29T06:31:24;19.50;84.20
59505;DHT22;45321;53.200;5.814;2023-07-29T06:33:50;19.60;84.20
59505;DHT22;45321;53.200;5.814;2023-07-29T06:36:16;19.60;84.00
59505;DHT22;45321;53.200;5.814;2023-07-29T06:38:41;19.60;83.80
59505;DHT22;45321;53.200;5.814;2023-07-29T06:41:07;19.60;83.80
59505;DHT22;45321;53.200;5.814;2023-07-29T06:43:33;19.50;83.90
59505;DHT22;45321;53.200;5.814;2023-07-29T06:45:59;19.60;84.10
59505;DHT22;45321;53.200;5.814;2023-07-29T06:48:24;19.60;83.90
59505;DHT22;45321;53.200;5.814;2023-07-29T06:50:50;19.60;83.80
59505;DHT22;45321;53.200;5.814;2023-07-29T06:53:16;19.60;83.70
59505;DHT22;45321;53.200;5.814;2023-07-29T06:55:43;19.50;83.80
59505;DHT22;45321;53.200;5.814;2023-07-29T06:58:10;19.60;83.90
59505;DHT22;45321;53.200;5.814;2023-07-29T07:00:36;19.60;83.70
59505;DHT22;45321;53.200;5.814;2023-07-29T07:03:01;19.60;83.60
59505;DHT22;45321;53.200;5.814;2023-07-29T07:05:27;19.60;83.60
59505;DHT22;45321;53.200;5.814;2023-07-29T07:07:53;19.60;83.80
59505;DHT22;45321;53.200;5.814;2023-07-29T07:10:19;19.70;83.80
59505;DHT22;45321;53.200;5.814;2023-07-29T07:12:44;19.70;83.60
59505;DHT22;45321;53.200;5.814;2023-07-29T07:15:13;19.70;83.60
59505;DHT22;45321;53.200;5.814;2023-07-29T07:17:39;19.70;83.50
59505;DHT22;45321;53.200;5.814;2023-07-29T07:20:05;19.70;83.50
59505;DHT22;45321;53.200;5.814;2023-07-29T07:22:31;19.80;83.70
59505;DHT22;45321;53.200;5.814;2023-07-29T07:24:57;19.80;83.60
59505;DHT22;45321;53.200;5.814;2023-07-29T07:27:22;19.90;83.50
59505;DHT22;45321;53.200;5.814;2023-07-29T07:29:48;20.00;83.50
59505;DHT22;45321;53.200;5.814;2023-07-29T07:32:14;20.00;83.10
59505;DHT22;45321;53.200;5.814;2023-07-29T07:34:40;20.00;83.00
59505;DHT22;45321;53.200;5.814;2023-07-29T07:37:06;20.00;82.90
59505;DHT22;45321;53.200;5.814;2023-07-29T07:39:32;20.00;82.70
59505;DHT22;45321;53.200;5.814;2023-07-29T07:41:57;19.90;82.70
59505;DHT22;45321;53.200;5.814;2023-07-29T07:44:23;19.90;82.70
59505;DHT22;45321;53.200;5.814;2023-07-29T07:46:52;19.90;82.90
59505;DHT22;45321;53.200;5.814;2023-07-29T07:49:19;19.90;82.90
59505;DHT22;45321;53.200;5.814;2023-07-29T07:51:44;20.00;83.00
59505;DHT22;45321;53.200;5.814;2023-07-29T07:54:10;20.00;82.80
59505;DHT22;45321;53.200;5.814;2023-07-29T07:56:36;20.00;82.70
59505;DHT22;45321;53.200;5.814;2023-07-29T07:59:01;20.00;82.40
59505;DHT22;45321;53.200;5.814;2023-07-29T08:01:27;20.00;82.70
59505;DHT22;45321;53.200;5.814;2023-07-29T08:03:53;20.10;82.80
59505;DHT22;45321;53.200;5.814;2023-07-29T08:06:18;20.20;82.70
59505;DHT22;45321;53.200;5.814;2023-07-29T08:08:44;20.20;82.60
59505;DHT22;45321;53.200;5.814;2023-07-29T08:11:10;20.20;82.60
59505;DHT22;45321;53.200;5.814;2023-07-29T08:13:36;20.20;82.50
59505;DHT22;45321;53.200;5.814;2023-07-29T08:16:02;20.20;82.30
59505;DHT22;45321;53.200;5.814;2023-07-29T08:18:27;20.20;82.30
59505;DHT22;45321;53.200;5.814;2023-07-29T08:23:20;20.20;82.30
59505;DHT22;45321;53.200;5.814;2023-07-29T08:25:56;20.20;82.00
59505;DHT22;45321;53.200;5.814;2023-07-29T08:28:30;20.20;81.80
59505;DHT22;45321;53.200;5.814;2023-07-29T08:30:56;20.20;81.70
59505;DHT22;45321;53.200;5.814;2023-07-29T08:33:21;20.20;81.60
59505;DHT22;45321;53.200;5.814;2023-07-29T08:35:47;20.20;82.00
59505;DHT22;45321;53.200;5.814;2023-07-29T08:38:13;20.20;81.60
59505;DHT22;45321;53.200;5.814;2023-07-29T08:41:19;20.20;81.50
59505;DHT22;45321;53.200;5.814;2023-07-29T08:44:06;20.30;81.60
59505;DHT22;45321;53.200;5.814;2023-07-29T08:46:34;20.50;82.10
59505;DHT22;45321;53.200;5.814;2023-07-29T08:49:01;20.60;81.30
59505;DHT22;45321;53.200;5.814;2023-07-29T08:51:29;20.70;81.20
59505;DHT22;45321;53.200;5.814;2023-07-29T08:53:56;20.60;80.90
59505;DHT22;45321;53.200;5.814;2023-07-29T08:56:24;20.60;80.20
59505;DHT22;45321;53.200;5.814;2023-07-29T08:58:50;20.60;79.80
59505;DHT22;45321;53.200;5.814;2023-07-29T09:01:16;20.50;80.00
59505;DHT22;45321;53.200;5.814;2023-07-29T09:03:42;20.50;80.00
59505;DHT22;45321;53.200;5.814;2023-07-29T09:06:08;20.60;80.10
59505;DHT22;45321;53.200;5.814;2023-07-29T09:08:34;20.50;80.10
59505;DHT22;45321;53.200;5.814;2023-07-29T09:11:00;20.50;79.50
59505;DHT22;45321;53.200;5.814;2023-07-29T09:13:26;20.60;79.90
59505;DHT22;45321;53.200;5.814;2023-07-29T09:15:57;20.60;79.90
59505;DHT22;45321;53.200;5.814;2023-07-29T09:18:23;20.60;80.30
59505;DHT22;45321;53.200;5.814;2023-07-29T09:20:51;20.70;80.60
59505;DHT22;45321;53.200;5.814;2023-07-29T09:23:17;20.70;80.60
59505;DHT22;45321;53.200;5.814;2023-07-29T09:25:46;20.70;80.70
59505;DHT22;45321;53.200;5.814;2023-07-29T09:28:14;20.70;80.90
59505;DHT22;45321;53.200;5.814;2023-07-29T09:30:42;20.70;80.70
59505;DHT22;45321;53.200;5.814;2023-07-29T09:33:11;20.70;81.00
59505;DHT22;45321;53.200;5.814;2023-07-29T09:35:37;20.80;80.90
59505;DHT22;45321;53.200;5.814;2023-07-29T09:38:07;20.90;80.80
59505;DHT22;45321;53.200;5.814;2023-07-29T09:40:40;20.90;80.30
59505;DHT22;45321;53.200;5.814;2023-07-29T09:43:08;20.90;79.20
59505;DHT22;45321;53.200;5.814;2023-07-29T09:45:35;20.90;79.20
59505;DHT22;45321;53.200;5.814;2023-07-29T09:48:01;20.90;79.40
59505;DHT22;45321;53.200;5.814;2023-07-29T09:50:28;20.90;79.30
59505;DHT22;45321;53.200;5.814;2023-07-29T09:52:55;20.90;79.10
59505;DHT22;45321;53.200;5.814;2023-07-29T09:55:23;20.90;79.40
59505;DHT22;45321;53.200;5.814;2023-07-29T09:57:54;21.10;79.90
59505;DHT22;45321;53.200;5.814;2023-07-29T10:00:21;21.20;79.40
59505;DHT22;45321;53.200;5.814;2023-07-29T10:02:47;21.30;79.60
59505;DHT22;45321;53.200;5.814;2023-07-29T10:05:13;21.50;79.10
59505;DHT22;45321;53.200;5.814;2023-07-29T10:07:39;21.70;78.70
59505;DHT22;45321;53.200;5.814;2023-07-29T10:10:07;21.70;77.00
59505;DHT22;45321;53.200;5.814;2023-07-29T10:12:34;21.80;77.90
59505;DHT22;45321;53.200;5.814;2023-07-29T10:15:04;21.90;77.40
59505;DHT22;45321;53.200;5.814;2023-07-29T10:17:34;21.90;77.20
59505;DHT22;45321;53.200;5.814;2023-07-29T10:20:00;22.00;77.20
59505;DHT22;45321;53.200;5.814;2023-07-29T10:22:42;22.10;77.70
59505;DHT22;45321;53.200;5.814;2023-07-29T10:25:16;22.20;78.30
59505;DHT22;45321;53.200;5.814;2023-07-29T10:27:54;22.20;77.10
59505;DHT22;45321;53.200;5.814;2023-07-29T10:30:21;22.30;76.40
59505;DHT22;45321;53.200;5.814;2023-07-29T10:32:48;22.40;74.70
59505;DHT22;45321;53.200;5.814;2023-07-29T10:35:15;22.50;75.90
59505;DHT22;45321;53.200;5.814;2023-07-29T10:37:42;22.50;75.80
59505;DHT22;45321;53.200;5.814;2023-07-29T10:40:09;22.50;75.10
59505;DHT22;45321;53.200;5.814;2023-07-29T10:42:39;22.40;75.00
59505;DHT22;45321;53.200;5.814;2023-07-29T10:45:22;22.40;75.50
59505;DHT22;45321;53.200;5.814;2023-07-29T10:47:48;22.50;75.60
59505;DHT22;45321;53.200;5.814;2023-07-29T10:50:19;22.60;75.20
59505;DHT22;45321;53.200;5.814;2023-07-29T10:52:49;22.50;75.70
59505;DHT22;45321;53.200;5.814;2023-07-29T10:55:35;22.50;75.10
59505;DHT22;45321;53.200;5.814;2023-07-29T10:58:14;22.40;74.80
59505;DHT22;45321;53.200;5.814;2023-07-29T11:00:43;22.20;74.90
59505;DHT22;45321;53.200;5.814;2023-07-29T11:03:09;22.20;74.70
59505;DHT22;45321;53.200;5.814;2023-07-29T11:05:49;21.90;75.40
59505;DHT22;45321;53.200;5.814;2023-07-29T11:08:31;21.70;76.70
59505;DHT22;45321;53.200;5.814;2023-07-29T11:13:27;21.20;77.50
59505;DHT22;45321;53.200;5.814;2023-07-29T11:15:54;21.00;77.90
59505;DHT22;45321;53.200;5.814;2023-07-29T11:18:21;21.00;78.50
59505;DHT22;45321;53.200;5.814;2023-07-29T11:20:46;20.80;78.10
59505;DHT22;45321;53.200;5.814;2023-07-29T11:23:13;20.80;78.60
59505;DHT22;45321;53.200;5.814;2023-07-29T11:25:39;20.80;79.10
59505;DHT22;45321;53.200;5.814;2023-07-29T11:28:05;20.90;79.10
59505;DHT22;45321;53.200;5.814;2023-07-29T11:30:30;21.00;79.30
59505;DHT22;45321;53.200;5.814;2023-07-29T11:32:57;21.10;79.30
59505;DHT22;45321;53.200;5.814;2023-07-29T11:35:23;21.30;79.60
59505;DHT22;45321;53.200;5.814;2023-07-29T11:37:50;21.70;80.00
59505;DHT22;45321;53.200;5.814;2023-07-29T11:40:21;21.80;79.40
59505;DHT22;45321;53.200;5.814;2023-07-29T11:42:48;21.90;77.20
59505;DHT22;45321;53.200;5.814;2023-07-29T11:45:16;22.10;76.00
59505;DHT22;45321;53.200;5.814;2023-07-29T11:47:42;22.10;74.90
59505;DHT22;45321;53.200;5.814;2023-07-29T11:50:09;22.10;74.50
59505;DHT22;45321;53.200;5.814;2023-07-29T11:52:40;22.20;74.70
59505;DHT22;45321;53.200;5.814;2023-07-29T11:55:06;22.20;73.80
59505;DHT22;45321;53.200;5.814;2023-07-29T11:57:37;22.10;73.80
59505;DHT22;45321;53.200;5.814;2023-07-29T12:00:05;22.00;73.70
59505;DHT22;45321;53.200;5.814;2023-07-29T12:02:33;21.90;73.80
59505;DHT22;45321;53.200;5.814;2023-07-29T12:05:00;21.80;74.60
59505;DHT22;45321;53.200;5.814;2023-07-29T12:07:26;21.80;74.80
59505;DHT22;45321;53.200;5.814;2023-07-29T12:09:52;21.80;75.00
59505;DHT22;45321;53.200;5.814;2023-07-29T12:12:18;21.80;74.80
59505;DHT22;45321;53.200;5.814;2023-07-29T12:14:45;21.70;73.70
59505;DHT22;45321;53.200;5.814;2023-07-29T12:17:12;21.70;74.10
59505;DHT22;45321;53.200;5.814;2023-07-29T12:19:39;21.60;74.20
59505;DHT22;45321;53.200;5.814;2023-07-29T12:22:07;21.70;74.80
59505;DHT22;45321;53.200;5.814;2023-07-29T12:24:35;21.70;74.20
59505;DHT22;45321;53.200;5.814;2023-07-29T12:27:01;21.70;74.00
59505;DHT22;45321;53.200;5.814;2023-07-29T12:29:28;21.70;74.50
59505;DHT22;45321;53.200;5.814;2023-07-29T12:32:12;21.70;74.60
59505;DHT22;45321;53.200;5.814;2023-07-29T12:34:39;21.80;73.90
59505;DHT22;45321;53.200;5.814;2023-07-29T12:37:05;21.80;72.80
59505;DHT22;45321;53.200;5.814;2023-07-29T12:39:39;21.90;71.90
59505;DHT22;45321;53.200;5.814;2023-07-29T12:42:05;21.90;72.20
59505;DHT22;45321;53.200;5.814;2023-07-29T12:44:35;21.90;72.00
59505;DHT22;45321;53.200;5.814;2023-07-29T12:47:02;22.00;71.80
59505;DHT22;45321;53.200;5.814;2023-07-29T12:49:29;22.00;71.30
59505;DHT22;45321;53.200;5.814;2023-07-29T12:51:56;22.10;71.30
59505;DHT22;45321;53.200;5.814;2023-07-29T12:54:22;22.20;71.80
59505;DHT22;45321;53.200;5.814;2023-07-29T12:56:47;22.30;71.60
59505;DHT22;45321;53.200;5.814;2023-07-29T12:59:13;22.40;69.50
59505;DHT22;45321;53.200;5.814;2023-07-29T13:01:39;22.50;69.90
59505;DHT22;45321;53.200;5.814;2023-07-29T13:04:05;22.70;69.80
59505;DHT22;45321;53.200;5.814;2023-07-29T13:06:30;22.80;69.70
59505;DHT22;45321;53.200;5.814;2023-07-29T13:08:59;23.00;68.90
59505;DHT22;45321;53.200;5.814;2023-07-29T13:11:25;22.90;69.00
59505;DHT22;45321;53.200;5.814;2023-07-29T13:13:51;23.00;69.60
59505;DHT22;45321;53.200;5.814;2023-07-29T13:16:17;23.10;69.30
59505;DHT22;45321;53.200;5.814;2023-07-29T13:18:43;23.20;68.90
59505;DHT22;45321;53.200;5.814;2023-07-29T13:21:09;23.30;69.40
59505;DHT22;45321;53.200;5.814;2023-07-29T13:23:35;23.30;66.40
59505;DHT22;45321;53.200;5.814;2023-07-29T13:26:01;23.50;69.10
59505;DHT22;45321;53.200;5.814;2023-07-29T13:28:27;23.60;67.00
59505;DHT22;45321;53.200;5.814;2023-07-29T13:30:52;23.60;66.00
59505;DHT22;45321;53.200;5.814;2023-07-29T13:33:18;23.70;66.60
59505;DHT22;45321;53.200;5.814;2023-07-29T13:35:44;23.80;67.30
59505;DHT22;45321;53.200;5.814;2023-07-29T13:38:10;23.90;66.90
59505;DHT22;45321;53.200;5.814;2023-07-29T13:40:36;24.10;66.10
59505;DHT22;45321;53.200;5.814;2023-07-29T13:43:02;24.00;65.80
59505;DHT22;45321;53.200;5.814;2023-07-29T13:45:28;24.10;64.80
59505;DHT22;45321;53.200;5.814;2023-07-29T13:47:54;24.20;65.60
59505;DHT22;45321;53.200;5.814;2023-07-29T13:50:19;24.30;65.40
59505;DHT22;45321;53.200;5.814;2023-07-29T13:52:46;24.20;64.20
59505;DHT22;45321;53.200;5.814;2023-07-29T13:55:11;24.30;66.20
59505;DHT22;45321;53.200;5.814;2023-07-29T13:57:38;24.40;64.10
59505;DHT22;45321;53.200;5.814;2023-07-29T14:00:07;24.30;62.90
59505;DHT22;45321;53.200;5.814;2023-07-29T14:02:34;24.40;63.90
59505;DHT22;45321;53.200;5.814;2023-07-29T14:04:59;24.40;62.90
59505;DHT22;45321;53.200;5.814;2023-07-29T14:07:25;24.50;63.00
59505;DHT22;45321;53.200;5.814;2023-07-29T14:09:51;24.40;63.10
59505;DHT22;45321;53.200;5.814;2023-07-29T14:12:16;24.30;60.20
59505;DHT22;45321;53.200;5.814;2023-07-29T14:14:42;24.30;62.80
59505;DHT22;45321;53.200;5.814;2023-07-29T14:17:08;24.30;63.40
59505;DHT22;45321;53.200;5.814;2023-07-29T14:19:34;24.20;62.40
59505;DHT22;45321;53.200;5.814;2023-07-29T14:22:00;24.20;63.10
59505;DHT22;45321;53.200;5.814;2023-07-29T14:24:26;24.20;63.60
59505;DHT22;45321;53.200;5.814;2023-07-29T14:26:52;24.30;64.70
59505;DHT22;45321;53.200;5.814;2023-07-29T14:29:20;24.50;64.40
59505;DHT22;45321;53.200;5.814;2023-07-29T14:31:49;24.70;63.80
59505;DHT22;45321;53.200;5.814;2023-07-29T14:34:15;24.90;62.90
59505;DHT22;45321;53.200;5.814;2023-07-29T14:36:40;25.00;62.60
59505;DHT22;45321;53.200;5.814;2023-07-29T14:39:06;25.10;62.10
59505;DHT22;45321;53.200;5.814;2023-07-29T14:41:33;25.20;61.20
59505;DHT22;45321;53.200;5.814;2023-07-29T14:43:58;25.50;61.70
59505;DHT22;45321;53.200;5.814;2023-07-29T14:46:24;25.80;61.00
59505;DHT22;45321;53.200;5.814;2023-07-29T14:48:50;26.20;60.90
59505;DHT22;45321;53.200;5.814;2023-07-29T14:51:15;26.60;59.60
59505;DHT22;45321;53.200;5.814;2023-07-29T14:53:41;26.90;59.10
59505;DHT22;45321;53.200;5.814;2023-07-29T14:56:08;27.10;57.80
59505;DHT22;45321;53.200;5.814;2023-07-29T14:58:34;27.00;58.10
59505;DHT22;45321;53.200;5.814;2023-07-29T15:01:00;27.00;58.20
59505;DHT22;45321;53.200;5.814;2023-07-29T15:03:25;27.10;58.10
59505;DHT22;45321;53.200;5.814;2023-07-29T15:05:51;27.20;57.00
59505;DHT22;45321;53.200;5.814;2023-07-29T15:08:17;27.20;57.30
59505;DHT22;45321;53.200;5.814;2023-07-29T15:10:47;27.10;56.50
59505;DHT22;45321;53.200;5.814;2023-07-29T15:13:14;27.10;57.00
59505;DHT22;45321;53.200;5.814;2023-07-29T15:15:43;27.10;57.10
59505;DHT22;45321;53.200;5.814;2023-07-29T15:18:10;26.80;56.40
59505;DHT22;45321;53.200;5.814;2023-07-29T15:20:35;26.60;57.80
59505;DHT22;45321;53.200;5.814;2023-07-29T15:23:01;26.30;56.70
59505;DHT22;45321;53.200;5.814;2023-07-29T15:25:27;26.10;57.20
59505;DHT22;45321;53.200;5.814;2023-07-29T15:27:53;25.90;58.70
59505;DHT22;45321;53.200;5.814;2023-07-29T15:30:19;25.80;59.30
59505;DHT22;45321;53.200;5.814;2023-07-29T15:32:45;25.70;59.80
59505;DHT22;45321;53.200;5.814;2023-07-29T15:35:11;25.60;59.40
59505;DHT22;45321;53.200;5.814;2023-07-29T15:37:37;25.50;59.80